createdAt,value
2018-10-07T00:01:51.391Z,64.37
2018-10-07T00:04:21.920Z,64.07
2018-10-07T00:06:52.674Z,64.73
2018-10-07T00:09:23.598Z,64.23
2018-10-07T00:11:54.429Z,64.43
2018-10-07T00:14:25.662Z,64.36
2018-10-07T00:16:56.491Z,64.08
2018-10-07T00:19:27.919Z,64.87
2018-10-07T00:21:58.637Z,64.83
2018-10-07T00:24:30.480Z,65.69
2018-10-07T00:27:00.318Z,65.34
2018-10-07T00:29:31.872Z,65.75
2018-10-07T00:32:07.328Z,67.22
2018-10-07T00:34:37.442Z,66.71
2018-10-07T00:37:07.248Z,66.05
2018-10-07T00:39:37.539Z,65.71
2018-10-07T00:42:07.588Z,65.79
2018-10-07T00:44:37.521Z,66.19
2018-10-07T00:47:08.672Z,66.95
2018-10-07T00:49:39.518Z,67.53
2018-10-07T00:52:10.470Z,68.62
2018-10-07T00:54:40.261Z,69.25
2018-10-07T00:57:11.684Z,68.60
2018-10-07T00:59:42.496Z,69.54
2018-10-07T01:02:13.490Z,68.39
2018-10-07T01:04:44.493Z,67.96
2018-10-07T01:07:15.773Z,67.71
2018-10-07T01:09:46.764Z,67.41
2018-10-07T01:12:17.680Z,67.10
2018-10-07T01:14:48.466Z,66.88
2018-10-07T01:17:19.712Z,66.91
2018-10-07T01:19:50.492Z,66.75
2018-10-07T01:22:21.960Z,67.11
2018-10-07T01:24:52.618Z,67.27
2018-10-07T01:27:23.514Z,67.28
2018-10-07T01:29:54.435Z,67.39
2018-10-07T01:32:25.460Z,67.10
2018-10-07T01:34:56.345Z,67.36
2018-10-07T01:37:27.752Z,67.43
2018-10-07T01:39:58.558Z,67.43
2018-10-07T01:42:29.416Z,67.42
2018-10-07T01:45:00.639Z,67.58
2018-10-07T01:47:31.518Z,67.73
2018-10-07T01:50:02.304Z,67.51
2018-10-07T01:52:33.791Z,67.41
2018-10-07T01:55:05.713Z,67.66
2018-10-07T01:57:35.657Z,67.61
2018-10-07T02:00:06.509Z,67.60
2018-10-07T02:02:37.661Z,67.92
2018-10-07T02:05:08.884Z,67.88
2018-10-07T02:07:39.661Z,67.74
2018-10-07T02:10:10.449Z,68.01
2018-10-07T02:12:41.580Z,68.03
2018-10-07T02:15:12.606Z,68.32
2018-10-07T02:17:43.460Z,68.06
2018-10-07T02:20:14.733Z,67.88
2018-10-07T02:22:46.009Z,68.21
2018-10-07T02:25:16.670Z,68.10
2018-10-07T02:27:47.726Z,68.08
2018-10-07T02:30:18.973Z,68.05
2018-10-07T02:32:49.750Z,68.23
2018-10-07T02:35:23.803Z,68.31
2018-10-07T02:37:54.073Z,67.84
2018-10-07T02:40:24.314Z,68.97
2018-10-07T02:42:54.313Z,68.94
2018-10-07T02:45:24.325Z,68.78
2018-10-07T02:47:55.917Z,68.89
2018-10-07T02:50:27.177Z,68.87
2018-10-07T02:52:58.409Z,69.20
2018-10-07T02:55:31.260Z,69.04
2018-10-07T02:58:04.240Z,69.45
2018-10-07T03:00:34.206Z,69.33
2018-10-07T03:03:04.299Z,69.16
2018-10-07T03:05:34.337Z,69.69
2018-10-07T03:08:04.352Z,69.93
2018-10-07T03:10:34.634Z,70.06
2018-10-07T03:13:05.572Z,70.18
2018-10-07T03:15:36.489Z,69.95
2018-10-07T03:18:07.523Z,70.22
2018-10-07T03:20:38.525Z,70.06
2018-10-07T03:23:09.297Z,70.19
2018-10-07T03:25:40.769Z,70.04
2018-10-07T03:28:11.550Z,69.71
2018-10-07T03:30:42.558Z,70.03
2018-10-07T03:33:13.317Z,70.57
2018-10-07T03:35:44.699Z,70.32
2018-10-07T03:38:15.460Z,69.97
2018-10-07T03:40:46.848Z,69.87
2018-10-07T03:43:17.637Z,70.19
2018-10-07T03:45:48.509Z,70.59
2018-10-07T03:48:19.388Z,70.49
2018-10-07T03:50:50.740Z,70.52
2018-10-07T03:53:21.512Z,70.19
2018-10-07T03:55:52.513Z,70.31
2018-10-07T03:58:23.349Z,70.68
2018-10-07T04:00:55.005Z,70.79
2018-10-07T04:03:25.619Z,70.82
2018-10-07T04:05:56.818Z,70.90
2018-10-07T04:08:27.657Z,71.01
2018-10-07T04:10:58.609Z,71.12
2018-10-07T04:13:29.344Z,70.95
2018-10-07T04:16:00.722Z,71.18
2018-10-07T04:18:31.508Z,71.17
2018-10-07T04:21:02.446Z,71.20
2018-10-07T04:23:33.723Z,71.67
2018-10-07T04:26:04.750Z,71.69
2018-10-07T04:28:35.537Z,71.60
2018-10-07T04:31:06.454Z,71.62
2018-10-07T04:33:37.759Z,71.11
2018-10-07T04:36:08.693Z,71.22
2018-10-07T04:38:39.929Z,71.67
2018-10-07T04:41:10.892Z,71.79
2018-10-07T04:43:41.541Z,71.83
2018-10-07T04:46:12.990Z,71.80
2018-10-07T04:48:43.544Z,71.77
2018-10-07T04:51:14.465Z,71.64
2018-10-07T04:53:45.297Z,71.72
2018-10-07T04:56:16.870Z,71.88
2018-10-07T04:58:47.582Z,72.04
2018-10-07T05:01:18.740Z,72.39
2018-10-07T05:03:49.860Z,71.86
2018-10-07T05:06:21.548Z,71.84
2018-10-07T05:08:51.606Z,71.99
2018-10-07T05:11:22.807Z,72.36
2018-10-07T05:13:55.535Z,72.12
2018-10-07T05:16:46.934Z,72.05
2018-10-07T05:19:17.345Z,72.80
2018-10-07T05:21:47.637Z,72.75
2018-10-07T05:29:09.619Z,72.82
2018-10-07T05:31:39.471Z,73.19
2018-10-07T05:34:09.341Z,72.73
2018-10-07T05:36:39.267Z,72.58
2018-10-07T05:39:10.770Z,72.56
2018-10-07T05:41:40.690Z,72.96
2018-10-07T05:44:10.562Z,72.62
2018-10-07T05:46:40.507Z,75.85
2018-10-07T05:49:10.348Z,74.85
2018-10-07T05:51:40.197Z,74.66
2018-10-07T05:54:10.581Z,74.76
2018-10-07T05:56:40.395Z,74.32
2018-10-07T05:59:10.999Z,73.99
2018-10-07T06:01:43.274Z,73.87
2018-10-07T06:04:29.852Z,74.19
2018-10-07T06:07:02.944Z,74.48
2018-10-07T06:09:35.939Z,74.50
2018-10-07T06:12:06.026Z,74.95
2018-10-07T06:14:46.490Z,74.79
2018-10-07T06:17:16.768Z,75.05
2018-10-07T06:19:46.862Z,74.88
2018-10-07T06:22:16.790Z,75.49
2018-10-07T06:24:46.786Z,75.13
2018-10-07T06:27:16.663Z,75.31
2018-10-07T06:29:46.742Z,76.13
2018-10-07T06:32:16.908Z,77.36
2018-10-07T06:34:46.781Z,79.63
2018-10-07T06:37:16.731Z,78.57
2018-10-07T06:39:46.759Z,80.93
2018-10-07T06:42:16.632Z,81.53
2018-10-07T06:44:47.870Z,80.35
2018-10-07T06:47:17.732Z,80.31
2018-10-07T06:49:47.814Z,79.24
2018-10-07T06:52:18.105Z,79.49
2018-10-07T06:54:48.435Z,79.13
2018-10-07T06:57:18.925Z,78.93
2018-10-07T06:59:48.855Z,79.25
2018-10-07T07:02:19.597Z,78.87
2018-10-07T07:04:49.742Z,78.06
2018-10-07T07:07:19.714Z,78.37
2018-10-07T07:09:49.673Z,77.68
2018-10-07T07:12:19.485Z,77.62
2018-10-07T07:14:49.419Z,78.34
2018-10-07T07:17:19.596Z,78.31
2018-10-07T07:19:49.513Z,79.10
2018-10-07T07:22:19.608Z,78.83
2018-10-07T07:24:49.442Z,78.87
2018-10-07T07:27:19.445Z,79.04
2018-10-07T07:29:49.290Z,78.59
2018-10-07T07:32:19.102Z,78.30
2018-10-07T07:34:49.540Z,78.04
2018-10-07T07:37:19.361Z,77.48
2018-10-07T07:39:49.906Z,77.31
2018-10-07T07:42:20.774Z,77.08
2018-10-07T07:44:51.690Z,76.39
2018-10-07T07:47:25.012Z,75.67
2018-10-07T07:49:55.889Z,75.39
2018-10-07T07:52:25.741Z,74.73
2018-10-07T07:54:56.375Z,74.82
2018-10-07T07:57:26.698Z,74.78
2018-10-07T07:59:57.592Z,74.05
2018-10-07T08:02:28.885Z,73.42
2018-10-07T08:05:01.537Z,73.08
2018-10-07T08:07:33.049Z,72.67
2018-10-07T08:10:03.603Z,72.94
2018-10-07T08:12:33.476Z,72.07
2018-10-07T08:15:03.521Z,71.76
2018-10-07T08:17:34.871Z,71.24
2018-10-07T08:20:05.795Z,71.15
2018-10-07T08:22:37.192Z,70.07
2018-10-07T08:25:07.829Z,69.44
2018-10-07T08:27:38.858Z,68.82
2018-10-07T08:30:10.004Z,68.04
2018-10-07T08:32:40.968Z,67.68
2018-10-07T08:35:11.866Z,67.21
2018-10-07T08:37:42.870Z,66.93
2018-10-07T08:40:13.764Z,66.67
2018-10-07T08:42:44.759Z,66.06
2018-10-07T08:45:15.906Z,65.24
2018-10-07T08:47:46.957Z,64.00
2018-10-07T08:50:17.719Z,62.51
2018-10-07T08:52:48.674Z,62.35
2018-10-07T08:55:19.472Z,61.81
2018-10-07T08:57:50.489Z,62.45
2018-10-07T09:00:21.381Z,61.76
2018-10-07T09:02:52.397Z,60.98
2018-10-07T09:05:23.770Z,60.76
2018-10-07T09:07:54.871Z,60.50
2018-10-07T09:10:25.702Z,59.67
2018-10-07T09:12:56.857Z,59.27
2018-10-07T09:15:27.815Z,57.47
2018-10-07T09:17:58.832Z,56.79
2018-10-07T09:20:29.542Z,57.19
2018-10-07T09:23:00.757Z,57.58
2018-10-07T09:25:31.529Z,58.58
2018-10-07T09:28:02.805Z,57.86
2018-10-07T09:30:34.078Z,57.90
2018-10-07T09:33:04.729Z,58.39
2018-10-07T09:35:35.554Z,57.72
2018-10-07T09:38:07.164Z,58.16
2018-10-07T09:40:37.711Z,58.05
2018-10-07T09:43:08.730Z,57.34
2018-10-07T09:45:39.534Z,57.59
2018-10-07T09:48:10.788Z,57.92
2018-10-07T09:50:41.573Z,56.77
2018-10-07T09:53:12.683Z,57.19
2018-10-07T09:55:43.577Z,55.94
2018-10-07T09:58:14.553Z,55.24
2018-10-07T10:00:45.365Z,54.77
2018-10-07T10:03:16.830Z,54.66
2018-10-07T10:05:47.666Z,55.08
2018-10-07T10:08:18.850Z,55.52
2018-10-07T10:10:49.783Z,55.76
2018-10-07T10:13:20.691Z,55.14
2018-10-07T10:15:51.547Z,55.22
2018-10-07T10:18:27.810Z,54.28
2018-10-07T10:21:02.332Z,54.39
2018-10-07T10:24:47.716Z,54.11
2018-10-07T10:28:53.853Z,53.54
2018-10-07T10:31:36.709Z,53.40
2018-10-07T10:35:13.309Z,53.23
2018-10-07T10:38:48.888Z,51.68
2018-10-07T10:41:24.863Z,51.45
2018-10-07T10:44:00.662Z,50.11
2018-10-07T10:46:39.013Z,50.32
2018-10-07T10:49:16.360Z,49.91
2018-10-07T10:51:53.008Z,49.13
2018-10-07T10:54:30.203Z,49.48
2018-10-07T10:57:09.037Z,49.19
2018-10-07T11:00:15.912Z,48.67
2018-10-07T11:04:58.696Z,48.53
2018-10-07T11:07:37.221Z,48.33
2018-10-07T11:10:23.065Z,47.96
2018-10-07T11:14:10.342Z,47.87
2018-10-07T11:16:56.052Z,47.71
2018-10-07T11:19:30.024Z,47.98
2018-10-07T11:22:11.253Z,47.12
2018-10-07T11:24:46.531Z,46.30
2018-10-07T11:27:41.232Z,46.26
2018-10-07T11:31:22.660Z,46.51
2018-10-07T11:34:00.751Z,45.04
2018-10-07T11:36:45.819Z,44.86
2018-10-07T11:39:26.562Z,45.07
2018-10-07T11:42:04.543Z,44.95
2018-10-07T11:44:53.409Z,44.67
2018-10-07T11:47:32.071Z,44.43
2018-10-07T11:50:07.008Z,44.42
2018-10-07T11:52:43.569Z,43.57
2018-10-07T11:55:12.872Z,44.14
2018-10-07T11:57:43.275Z,44.06
2018-10-07T12:00:13.443Z,43.03
2018-10-07T12:02:43.692Z,42.94
2018-10-07T12:05:13.802Z,43.30
2018-10-07T12:07:43.893Z,43.29
2018-10-07T12:10:14.077Z,43.99
2018-10-07T12:12:43.998Z,44.13
2018-10-07T12:15:14.258Z,44.67
2018-10-07T12:17:44.217Z,44.90
2018-10-07T12:20:14.001Z,44.98
2018-10-07T12:22:43.790Z,44.31
2018-10-07T12:25:13.747Z,44.27
2018-10-07T12:27:43.710Z,43.25
2018-10-07T12:30:13.862Z,44.17
2018-10-07T12:32:43.685Z,44.27
2018-10-07T12:35:13.836Z,44.71
2018-10-07T12:37:48.744Z,44.86
2018-10-07T12:40:18.937Z,44.89
2018-10-07T12:42:48.773Z,44.71
2018-10-07T12:45:18.758Z,45.27
2018-10-07T12:47:48.637Z,45.10
2018-10-07T12:50:18.640Z,45.45
2018-10-07T12:52:49.256Z,45.47
2018-10-07T12:55:19.061Z,45.25
2018-10-07T12:57:48.864Z,44.96
2018-10-07T13:00:18.737Z,44.52
2018-10-07T13:02:48.642Z,44.53
2018-10-07T13:05:18.765Z,44.21
2018-10-07T13:07:49.036Z,43.94
2018-10-07T13:10:18.997Z,43.43
2018-10-07T13:12:48.917Z,43.92
2018-10-07T13:15:18.718Z,43.50
2018-10-07T13:17:48.799Z,44.04
2018-10-07T13:20:18.623Z,42.81
2018-10-07T13:22:48.724Z,42.45
2018-10-07T13:25:18.685Z,42.02
2018-10-07T13:27:48.825Z,41.96
2018-10-07T13:30:18.843Z,41.36
2018-10-07T13:32:48.667Z,41.32
2018-10-07T13:35:18.837Z,41.16
2018-10-07T13:37:48.777Z,41.56
2018-10-07T13:40:19.212Z,41.18
2018-10-07T13:42:49.152Z,41.09
2018-10-07T13:45:19.045Z,41.12
2018-10-07T13:47:48.928Z,41.15
2018-10-07T13:50:18.846Z,41.36
2018-10-07T13:52:48.730Z,42.22
2018-10-07T13:55:19.465Z,42.22
2018-10-07T13:57:49.894Z,41.85
2018-10-07T14:00:19.806Z,41.62
2018-10-07T14:02:49.888Z,42.32
2018-10-07T14:05:19.912Z,42.55
2018-10-07T14:07:50.013Z,41.87
2018-10-07T14:10:19.899Z,42.32
2018-10-07T14:12:49.901Z,43.80
2018-10-07T14:15:19.921Z,45.50
2018-10-07T14:17:49.826Z,45.74
2018-10-07T14:20:19.869Z,45.55
2018-10-07T14:22:49.913Z,45.54
2018-10-07T14:25:19.797Z,45.79
2018-10-07T14:27:49.928Z,45.05
2018-10-07T14:30:25.438Z,44.63
2018-10-07T14:32:55.549Z,45.04
2018-10-07T14:35:25.580Z,44.88
2018-10-07T14:37:55.645Z,45.04
2018-10-07T14:40:25.615Z,44.98
2018-10-07T14:42:55.590Z,46.09
2018-10-07T14:45:25.758Z,48.08
2018-10-07T14:47:56.068Z,49.66
2018-10-07T14:50:26.509Z,50.64
2018-10-07T14:52:58.161Z,52.77
2018-10-07T14:55:28.030Z,52.87
2018-10-07T14:57:58.509Z,54.55
2018-10-07T15:00:28.489Z,54.59
2018-10-07T15:02:58.530Z,55.61
2018-10-07T15:05:28.452Z,55.49
2018-10-07T15:07:58.317Z,55.22
2018-10-07T15:10:28.263Z,56.22
2018-10-07T15:12:58.209Z,55.79
2018-10-07T15:15:28.011Z,56.27
2018-10-07T15:17:57.756Z,56.89
2018-10-07T15:20:27.730Z,57.38
2018-10-07T15:22:57.506Z,56.97
2018-10-07T15:25:27.340Z,57.91
2018-10-07T15:27:57.545Z,59.04
2018-10-07T15:30:27.322Z,59.10
2018-10-07T15:32:57.790Z,60.14
2018-10-07T15:35:28.572Z,61.44
2018-10-07T15:37:59.698Z,60.87
2018-10-07T15:40:30.524Z,60.40
2018-10-07T15:43:01.517Z,60.21
2018-10-07T15:45:32.326Z,60.39
2018-10-07T15:48:03.933Z,62.07
2018-10-07T15:50:34.752Z,61.65
2018-10-07T15:53:05.786Z,61.26
2018-10-07T15:55:36.744Z,62.79
2018-10-07T15:58:07.860Z,63.46
2018-10-07T16:00:38.765Z,62.46
2018-10-07T16:03:09.986Z,62.66
2018-10-07T16:05:40.646Z,63.08
2018-10-07T16:08:11.534Z,62.93
2018-10-07T16:10:42.497Z,63.42
2018-10-07T16:13:13.597Z,62.79
2018-10-07T16:15:44.456Z,63.07
2018-10-07T16:18:15.884Z,62.84
2018-10-07T16:20:46.855Z,62.39
2018-10-07T16:23:18.115Z,62.06
2018-10-07T16:25:48.545Z,61.75
2018-10-07T16:28:19.599Z,63.04
2018-10-07T16:30:50.596Z,63.25
2018-10-07T16:33:21.811Z,62.23
2018-10-07T16:35:53.431Z,63.28
2018-10-07T16:38:23.399Z,62.88
2018-10-07T16:40:54.954Z,62.62
2018-10-07T16:43:26.554Z,63.77
2018-10-07T16:45:57.133Z,63.82
2018-10-07T16:48:29.583Z,64.50
2018-10-07T16:50:59.409Z,64.84
2018-10-07T16:53:32.804Z,65.34
2018-10-07T16:56:05.505Z,64.42
2018-10-07T16:58:37.750Z,64.59
2018-10-07T17:01:10.560Z,64.11
2018-10-07T17:03:40.837Z,64.42
2018-10-07T17:06:20.836Z,64.08
2018-10-07T17:08:51.915Z,64.60
2018-10-07T17:11:21.894Z,64.69
2018-10-07T17:13:53.081Z,64.02
2018-10-07T17:16:27.190Z,64.27
2018-10-07T17:21:32.213Z,64.30
2018-10-07T17:24:04.035Z,64.69
2018-10-07T17:26:33.900Z,64.67
2018-10-07T17:29:04.045Z,64.02
2018-10-07T17:31:35.363Z,63.53
2018-10-07T17:34:06.536Z,63.15
2018-10-07T17:36:38.604Z,63.55
2018-10-07T17:39:13.939Z,63.94
2018-10-07T17:41:43.861Z,64.33
2018-10-07T17:44:19.083Z,63.90
2018-10-07T17:46:48.912Z,63.67
2018-10-07T17:49:25.155Z,63.75
2018-10-07T17:51:57.113Z,63.05
2018-10-07T17:54:28.304Z,63.71
2018-10-07T17:56:59.709Z,63.79
2018-10-07T17:59:30.542Z,63.59
2018-10-07T18:02:01.461Z,63.41
2018-10-07T18:04:34.518Z,63.38
2018-10-07T18:07:06.413Z,62.33
2018-10-07T18:09:38.475Z,62.50
2018-10-07T18:12:09.492Z,61.69
2018-10-07T18:14:45.210Z,61.62
2018-10-07T18:17:15.386Z,61.88
2018-10-07T18:19:51.033Z,62.10
2018-10-07T18:22:21.111Z,61.42
2018-10-07T18:24:51.793Z,61.34
2018-10-07T18:27:25.120Z,61.84
2018-10-07T18:35:05.763Z,61.66
2018-10-07T18:37:38.515Z,61.56
2018-10-07T18:42:44.035Z,61.39
2018-10-07T18:49:51.065Z,61.07
2018-10-07T18:52:21.068Z,61.50
2018-10-07T18:54:50.914Z,61.40
2018-10-07T18:57:26.001Z,61.48
2018-10-07T18:59:55.891Z,61.26
2018-10-07T19:02:28.129Z,61.40
2018-10-07T19:05:00.261Z,61.45
2018-10-07T19:07:30.167Z,62.26
2018-10-07T19:09:59.985Z,62.60
2018-10-07T19:12:29.987Z,62.37
2018-10-07T19:14:59.905Z,62.27
2018-10-07T19:17:30.232Z,62.12
2018-10-07T19:20:02.205Z,62.37
2018-10-07T19:22:32.446Z,62.41
2018-10-07T19:25:03.684Z,62.42
2018-10-07T19:27:33.620Z,62.51
2018-10-07T19:30:05.414Z,62.50
2018-10-07T19:32:36.053Z,62.20
2018-10-07T19:35:05.976Z,62.20
2018-10-07T19:37:35.781Z,61.93
2018-10-07T19:40:05.654Z,61.91
2018-10-07T19:42:35.656Z,61.75
2018-10-07T19:45:06.011Z,61.85
2018-10-07T19:47:35.851Z,62.41
2018-10-07T19:50:05.838Z,62.57
2018-10-07T19:52:35.631Z,62.78
2018-10-07T19:55:05.522Z,63.24
2018-10-07T19:57:35.500Z,63.81
2018-10-07T20:00:05.720Z,63.44
2018-10-07T20:02:35.548Z,64.61
2018-10-07T20:05:05.572Z,64.46
2018-10-07T20:07:35.601Z,64.37
2018-10-07T20:10:05.813Z,64.33
2018-10-07T20:12:36.013Z,64.22
2018-10-07T20:15:06.074Z,64.49
2018-10-07T20:17:35.993Z,64.44
2018-10-07T20:20:06.324Z,64.59
2018-10-07T20:22:36.573Z,65.42
2018-10-07T20:25:06.591Z,65.17
2018-10-07T20:27:36.503Z,64.97
2018-10-07T20:30:06.684Z,65.32
2018-10-07T20:32:36.750Z,65.01
2018-10-07T20:35:06.748Z,64.94
2018-10-07T20:37:36.644Z,64.95
2018-10-07T20:40:06.830Z,65.28
2018-10-07T20:42:36.985Z,65.30
2018-10-07T20:45:06.872Z,65.16
2018-10-07T20:47:36.692Z,65.28
2018-10-07T20:51:09.709Z,65.38
2018-10-07T20:53:39.654Z,65.46
2018-10-07T20:56:09.758Z,65.34
2018-10-07T20:58:39.618Z,64.98
2018-10-07T21:01:09.634Z,64.88
2018-10-07T21:03:39.536Z,64.92
2018-10-07T21:06:09.659Z,64.82
2018-10-07T21:08:39.758Z,64.98
2018-10-07T21:11:09.577Z,64.90
2018-10-07T21:13:39.945Z,64.89
2018-10-07T21:16:09.820Z,64.81
2018-10-07T21:18:39.712Z,64.62
2018-10-07T21:21:09.590Z,64.51
2018-10-07T21:23:39.680Z,64.59
2018-10-07T21:26:10.189Z,64.83
2018-10-07T21:28:40.022Z,64.69
2018-10-07T21:31:10.109Z,64.86
2018-10-07T21:33:39.931Z,64.84
2018-10-07T21:36:09.779Z,65.01
2018-10-07T21:38:39.608Z,65.10
2018-10-07T21:41:09.600Z,65.16
2018-10-07T21:43:39.966Z,65.08
2018-10-07T21:46:09.766Z,65.60
2018-10-07T21:48:39.576Z,65.38
2018-10-07T21:51:10.296Z,65.61
2018-10-07T21:53:40.260Z,65.53
2018-10-07T21:56:10.423Z,65.79
2018-10-07T21:58:40.634Z,65.85
2018-10-07T22:01:10.560Z,65.75
2018-10-07T22:03:40.633Z,65.77
2018-10-07T22:06:10.514Z,66.12
2018-10-07T22:08:40.646Z,66.07
2018-10-07T22:11:10.705Z,66.22
2018-10-07T22:13:40.598Z,66.11
2018-10-07T22:16:10.720Z,66.26
2018-10-07T22:18:40.478Z,66.33
2018-10-07T22:21:10.784Z,66.39
2018-10-07T22:23:40.650Z,66.59
2018-10-07T22:26:10.781Z,66.72
2018-10-07T22:28:40.821Z,66.48
2018-10-07T22:31:10.668Z,66.56
2018-10-07T22:33:40.730Z,66.43
2018-10-07T22:36:10.605Z,66.73
2018-10-07T22:38:40.645Z,66.55
2018-10-07T22:41:10.762Z,66.60
2018-10-07T22:43:40.828Z,66.84
2018-10-07T22:46:10.794Z,67.29
2018-10-07T22:48:40.689Z,66.85
2018-10-07T22:51:10.539Z,66.83
2018-10-07T22:53:40.557Z,67.10
2018-10-07T22:56:10.594Z,67.17
2018-10-07T22:58:41.689Z,67.15
2018-10-07T23:01:11.542Z,67.33
2018-10-07T23:03:41.566Z,67.26
2018-10-07T23:06:11.577Z,67.22
2018-10-07T23:08:41.638Z,67.28
2018-10-07T23:11:11.649Z,67.40
2018-10-07T23:13:42.080Z,67.79
2018-10-07T23:16:11.936Z,67.54
2018-10-07T23:18:41.853Z,67.40
2018-10-07T23:21:11.633Z,67.70
2018-10-07T23:23:50.789Z,67.85
2018-10-07T23:26:20.716Z,67.67
2018-10-07T23:28:50.649Z,67.62
2018-10-07T23:31:20.616Z,67.67
2018-10-07T23:33:50.518Z,67.91
2018-10-07T23:36:20.637Z,67.96
2018-10-07T23:38:50.458Z,67.86
2018-10-07T23:41:20.910Z,67.55
2018-10-07T23:43:50.783Z,67.91
2018-10-07T23:46:20.537Z,67.72
2018-10-07T23:48:50.766Z,67.73
2018-10-07T23:51:20.611Z,67.77
2018-10-07T23:53:50.670Z,67.83
2018-10-07T23:56:20.666Z,67.91
2018-10-07T23:58:50.813Z,67.93
